sensor_id;sensor_type;location;lat;lon;timestamp;P1;durP1;ratioP1;P2;durP2;ratioP2
63965;SDS011;50151;52.030;5.350;2022-12-07T00:01:05;13.10;;;5.38;;
63965;SDS011;50151;52.030;5.350;2022-12-07T00:03:32;11.02;;;5.03;;
63965;SDS011;50151;52.030;5.350;2022-12-07T00:05:59;9.98;;;4.88;;
63965;SDS011;50151;52.030;5.350;2022-12-07T00:08:27;11.93;;;5.25;;
63965;SDS011;50151;52.030;5.350;2022-12-07T00:10:54;7.20;;;4.80;;
63965;SDS011;50151;52.030;5.350;2022-12-07T00:13:20;9.00;;;5.00;;
63965;SDS011;50151;52.030;5.350;2022-12-07T00:15:47;10.50;;;4.97;;
63965;SDS011;50151;52.030;5.350;2022-12-07T00:18:13;8.73;;;4.45;;
63965;SDS011;50151;52.030;5.350;2022-12-07T00:20:40;10.88;;;4.78;;
63965;SDS011;50151;52.030;5.350;2022-12-07T00:23:07;7.40;;;4.35;;
63965;SDS011;50151;52.030;5.350;2022-12-07T00:25:33;6.97;;;4.25;;
63965;SDS011;50151;52.030;5.350;2022-12-07T00:28:00;8.15;;;4.15;;
63965;SDS011;50151;52.030;5.350;2022-12-07T00:30:27;5.63;;;4.00;;
63965;SDS011;50151;52.030;5.350;2022-12-07T00:32:53;5.85;;;3.60;;
63965;SDS011;50151;52.030;5.350;2022-12-07T00:35:20;6.20;;;4.00;;
63965;SDS011;50151;52.030;5.350;2022-12-07T00:37:47;5.90;;;3.65;;
63965;SDS011;50151;52.030;5.350;2022-12-07T00:40:14;10.95;;;4.00;;
63965;SDS011;50151;52.030;5.350;2022-12-07T00:42:40;5.88;;;3.33;;
63965;SDS011;50151;52.030;5.350;2022-12-07T00:45:07;7.97;;;3.42;;
63965;SDS011;50151;52.030;5.350;2022-12-07T00:47:34;11.40;;;4.10;;
63965;SDS011;50151;52.030;5.350;2022-12-07T00:50:01;9.20;;;4.40;;
63965;SDS011;50151;52.030;5.350;2022-12-07T00:52:29;7.28;;;4.07;;
63965;SDS011;50151;52.030;5.350;2022-12-07T00:54:55;8.02;;;3.63;;
63965;SDS011;50151;52.030;5.350;2022-12-07T00:57:22;10.43;;;4.15;;
63965;SDS011;50151;52.030;5.350;2022-12-07T00:59:49;7.45;;;3.92;;
63965;SDS011;50151;52.030;5.350;2022-12-07T01:02:15;6.55;;;4.13;;
63965;SDS011;50151;52.030;5.350;2022-12-07T01:04:42;7.82;;;4.00;;
63965;SDS011;50151;52.030;5.350;2022-12-07T01:07:09;9.70;;;3.88;;
63965;SDS011;50151;52.030;5.350;2022-12-07T01:09:36;6.72;;;3.80;;
63965;SDS011;50151;52.030;5.350;2022-12-07T01:12:02;9.48;;;3.80;;
63965;SDS011;50151;52.030;5.350;2022-12-07T01:14:29;7.00;;;3.65;;
63965;SDS011;50151;52.030;5.350;2022-12-07T01:16:56;9.25;;;3.97;;
63965;SDS011;50151;52.030;5.350;2022-12-07T01:19:23;5.90;;;3.97;;
63965;SDS011;50151;52.030;5.350;2022-12-07T01:21:49;6.40;;;4.05;;
63965;SDS011;50151;52.030;5.350;2022-12-07T01:24:16;8.15;;;3.85;;
63965;SDS011;50151;52.030;5.350;2022-12-07T01:26:43;5.50;;;4.03;;
63965;SDS011;50151;52.030;5.350;2022-12-07T01:29:09;6.30;;;3.88;;
63965;SDS011;50151;52.030;5.350;2022-12-07T01:31:36;5.18;;;3.67;;
63965;SDS011;50151;52.030;5.350;2022-12-07T01:34:03;8.40;;;3.85;;
63965;SDS011;50151;52.030;5.350;2022-12-07T01:36:30;7.18;;;4.15;;
63965;SDS011;50151;52.030;5.350;2022-12-07T01:39:00;5.55;;;4.18;;
63965;SDS011;50151;52.030;5.350;2022-12-07T01:41:30;7.97;;;4.00;;
63965;SDS011;50151;52.030;5.350;2022-12-07T01:47:07;5.07;;;3.33;;
63965;SDS011;50151;52.030;5.350;2022-12-07T01:49:35;8.13;;;3.75;;
63965;SDS011;50151;52.030;5.350;2022-12-07T01:54:54;4.93;;;3.38;;
63965;SDS011;50151;52.030;5.350;2022-12-07T01:57:27;8.60;;;3.78;;
63965;SDS011;50151;52.030;5.350;2022-12-07T01:59:54;5.90;;;3.50;;
63965;SDS011;50151;52.030;5.350;2022-12-07T02:02:24;6.13;;;3.75;;
63965;SDS011;50151;52.030;5.350;2022-12-07T02:04:55;5.55;;;3.22;;
63965;SDS011;50151;52.030;5.350;2022-12-07T02:07:23;8.32;;;3.45;;
63965;SDS011;50151;52.030;5.350;2022-12-07T02:09:51;8.00;;;3.67;;
63965;SDS011;50151;52.030;5.350;2022-12-07T02:12:17;6.18;;;3.15;;
63965;SDS011;50151;52.030;5.350;2022-12-07T02:14:46;6.93;;;3.50;;
63965;SDS011;50151;52.030;5.350;2022-12-07T02:31:31;5.43;;;3.45;;
63965;SDS011;50151;52.030;5.350;2022-12-07T02:34:07;4.75;;;3.10;;
63965;SDS011;50151;52.030;5.350;2022-12-07T02:36:46;4.05;;;2.80;;
63965;SDS011;50151;52.030;5.350;2022-12-07T02:40:05;4.55;;;3.10;;
63965;SDS011;50151;52.030;5.350;2022-12-07T02:42:14;7.55;;;3.47;;
63965;SDS011;50151;52.030;5.350;2022-12-07T02:44:45;10.13;;;3.40;;
63965;SDS011;50151;52.030;5.350;2022-12-07T02:47:13;4.32;;;3.08;;
63965;SDS011;50151;52.030;5.350;2022-12-07T02:49:42;6.55;;;3.42;;
63965;SDS011;50151;52.030;5.350;2022-12-07T02:52:09;6.38;;;3.10;;
63965;SDS011;50151;52.030;5.350;2022-12-07T02:54:36;8.57;;;3.30;;
63965;SDS011;50151;52.030;5.350;2022-12-07T02:57:13;3.97;;;2.92;;
63965;SDS011;50151;52.030;5.350;2022-12-07T03:00:07;4.53;;;3.03;;
63965;SDS011;50151;52.030;5.350;2022-12-07T03:02:39;7.55;;;3.25;;
63965;SDS011;50151;52.030;5.350;2022-12-07T03:05:27;7.40;;;3.15;;
63965;SDS011;50151;52.030;5.350;2022-12-07T03:08:07;5.25;;;3.10;;
63965;SDS011;50151;52.030;5.350;2022-12-07T03:10:56;7.60;;;3.35;;
63965;SDS011;50151;52.030;5.350;2022-12-07T03:13:30;4.40;;;3.03;;
63965;SDS011;50151;52.030;5.350;2022-12-07T03:16:09;7.05;;;2.85;;
63965;SDS011;50151;52.030;5.350;2022-12-07T03:18:49;4.68;;;2.90;;
63965;SDS011;50151;52.030;5.350;2022-12-07T03:21:21;4.63;;;3.17;;
63965;SDS011;50151;52.030;5.350;2022-12-07T03:23:56;9.25;;;3.15;;
63965;SDS011;50151;52.030;5.350;2022-12-07T03:26:34;5.07;;;2.83;;
63965;SDS011;50151;52.030;5.350;2022-12-07T03:29:11;4.60;;;3.00;;
63965;SDS011;50151;52.030;5.350;2022-12-07T03:31:44;6.35;;;3.33;;
63965;SDS011;50151;52.030;5.350;2022-12-07T03:34:26;7.25;;;3.25;;
63965;SDS011;50151;52.030;5.350;2022-12-07T03:42:24;6.05;;;3.00;;
63965;SDS011;50151;52.030;5.350;2022-12-07T03:44:51;5.05;;;3.28;;
63965;SDS011;50151;52.030;5.350;2022-12-07T03:47:24;5.20;;;3.10;;
63965;SDS011;50151;52.030;5.350;2022-12-07T03:49:56;4.43;;;3.20;;
63965;SDS011;50151;52.030;5.350;2022-12-07T03:52:31;6.97;;;3.20;;
63965;SDS011;50151;52.030;5.350;2022-12-07T03:57:30;5.82;;;2.83;;
63965;SDS011;50151;52.030;5.350;2022-12-07T03:59:59;4.70;;;3.00;;
63965;SDS011;50151;52.030;5.350;2022-12-07T04:02:27;4.85;;;3.00;;
63965;SDS011;50151;52.030;5.350;2022-12-07T04:04:55;8.60;;;3.28;;
63965;SDS011;50151;52.030;5.350;2022-12-07T04:07:22;8.23;;;3.10;;
63965;SDS011;50151;52.030;5.350;2022-12-07T04:09:49;5.53;;;2.83;;
63965;SDS011;50151;52.030;5.350;2022-12-07T04:12:15;7.90;;;3.08;;
63965;SDS011;50151;52.030;5.350;2022-12-07T04:14:42;6.18;;;3.10;;
63965;SDS011;50151;52.030;5.350;2022-12-07T04:17:09;4.28;;;2.95;;
63965;SDS011;50151;52.030;5.350;2022-12-07T04:19:35;7.40;;;3.10;;
63965;SDS011;50151;52.030;5.350;2022-12-07T04:22:03;6.10;;;2.65;;
63965;SDS011;50151;52.030;5.350;2022-12-07T04:24:31;7.50;;;3.05;;
63965;SDS011;50151;52.030;5.350;2022-12-07T04:26:58;5.70;;;2.85;;
63965;SDS011;50151;52.030;5.350;2022-12-07T04:29:24;4.68;;;2.88;;
63965;SDS011;50151;52.030;5.350;2022-12-07T04:31:51;4.50;;;3.33;;
63965;SDS011;50151;52.030;5.350;2022-12-07T04:34:18;5.53;;;3.22;;
63965;SDS011;50151;52.030;5.350;2022-12-07T04:36:46;4.47;;;2.90;;
63965;SDS011;50151;52.030;5.350;2022-12-07T04:39:17;6.40;;;2.78;;
63965;SDS011;50151;52.030;5.350;2022-12-07T04:41:54;4.63;;;2.67;;
63965;SDS011;50151;52.030;5.350;2022-12-07T04:44:22;7.63;;;3.00;;
63965;SDS011;50151;52.030;5.350;2022-12-07T04:46:50;6.28;;;3.40;;
63965;SDS011;50151;52.030;5.350;2022-12-07T04:49:17;6.93;;;2.60;;
63965;SDS011;50151;52.030;5.350;2022-12-07T04:51:45;5.97;;;2.95;;
63965;SDS011;50151;52.030;5.350;2022-12-07T04:54:13;3.88;;;2.80;;
63965;SDS011;50151;52.030;5.350;2022-12-07T04:56:41;3.65;;;2.70;;
63965;SDS011;50151;52.030;5.350;2022-12-07T04:59:09;5.28;;;2.50;;
63965;SDS011;50151;52.030;5.350;2022-12-07T05:01:40;7.43;;;2.13;;
63965;SDS011;50151;52.030;5.350;2022-12-07T05:04:07;3.17;;;2.20;;
63965;SDS011;50151;52.030;5.350;2022-12-07T05:06:34;4.78;;;2.25;;
63965;SDS011;50151;52.030;5.350;2022-12-07T05:09:01;7.60;;;2.28;;
63965;SDS011;50151;52.030;5.350;2022-12-07T05:11:29;7.35;;;2.60;;
63965;SDS011;50151;52.030;5.350;2022-12-07T05:16:38;5.00;;;2.35;;
63965;SDS011;50151;52.030;5.350;2022-12-07T05:19:05;5.40;;;2.05;;
63965;SDS011;50151;52.030;5.350;2022-12-07T05:21:32;5.22;;;2.63;;
63965;SDS011;50151;52.030;5.350;2022-12-07T05:23:59;7.85;;;2.10;;
63965;SDS011;50151;52.030;5.350;2022-12-07T05:26:26;5.35;;;2.17;;
63965;SDS011;50151;52.030;5.350;2022-12-07T05:28:54;4.70;;;2.40;;
63965;SDS011;50151;52.030;5.350;2022-12-07T05:31:22;4.97;;;1.95;;
63965;SDS011;50151;52.030;5.350;2022-12-07T05:33:49;3.72;;;2.10;;
63965;SDS011;50151;52.030;5.350;2022-12-07T05:36:16;8.52;;;2.75;;
63965;SDS011;50151;52.030;5.350;2022-12-07T05:38:43;6.68;;;1.98;;
63965;SDS011;50151;52.030;5.350;2022-12-07T05:41:12;5.13;;;2.28;;
63965;SDS011;50151;52.030;5.350;2022-12-07T05:43:59;4.20;;;2.20;;
63965;SDS011;50151;52.030;5.350;2022-12-07T05:46:26;4.18;;;2.20;;
63965;SDS011;50151;52.030;5.350;2022-12-07T05:48:53;4.25;;;2.03;;
63965;SDS011;50151;52.030;5.350;2022-12-07T05:51:20;5.80;;;2.47;;
63965;SDS011;50151;52.030;5.350;2022-12-07T05:53:46;4.65;;;2.38;;
63965;SDS011;50151;52.030;5.350;2022-12-07T05:56:13;6.13;;;2.30;;
63965;SDS011;50151;52.030;5.350;2022-12-07T05:58:40;5.45;;;1.92;;
63965;SDS011;50151;52.030;5.350;2022-12-07T06:01:25;5.93;;;2.22;;
63965;SDS011;50151;52.030;5.350;2022-12-07T06:03:52;5.20;;;2.58;;
63965;SDS011;50151;52.030;5.350;2022-12-07T06:06:19;3.63;;;1.95;;
63965;SDS011;50151;52.030;5.350;2022-12-07T06:08:46;4.43;;;2.10;;
63965;SDS011;50151;52.030;5.350;2022-12-07T06:11:13;6.13;;;2.65;;
63965;SDS011;50151;52.030;5.350;2022-12-07T06:13:59;7.95;;;2.50;;
63965;SDS011;50151;52.030;5.350;2022-12-07T06:16:26;5.85;;;2.40;;
63965;SDS011;50151;52.030;5.350;2022-12-07T06:18:53;3.88;;;2.10;;
63965;SDS011;50151;52.030;5.350;2022-12-07T06:21:19;7.55;;;2.28;;
63965;SDS011;50151;52.030;5.350;2022-12-07T06:23:46;6.28;;;2.25;;
63965;SDS011;50151;52.030;5.350;2022-12-07T06:26:14;4.88;;;2.25;;
63965;SDS011;50151;52.030;5.350;2022-12-07T06:28:40;5.28;;;2.10;;
63965;SDS011;50151;52.030;5.350;2022-12-07T06:31:07;5.15;;;2.13;;
63965;SDS011;50151;52.030;5.350;2022-12-07T06:33:39;3.40;;;1.95;;
63965;SDS011;50151;52.030;5.350;2022-12-07T06:36:06;3.30;;;1.90;;
63965;SDS011;50151;52.030;5.350;2022-12-07T06:38:33;5.30;;;1.95;;
63965;SDS011;50151;52.030;5.350;2022-12-07T06:41:01;3.97;;;1.90;;
63965;SDS011;50151;52.030;5.350;2022-12-07T06:43:28;4.28;;;2.10;;
63965;SDS011;50151;52.030;5.350;2022-12-07T06:45:55;4.18;;;2.08;;
63965;SDS011;50151;52.030;5.350;2022-12-07T06:48:25;4.22;;;2.15;;
63965;SDS011;50151;52.030;5.350;2022-12-07T06:50:51;4.93;;;2.13;;
63965;SDS011;50151;52.030;5.350;2022-12-07T06:53:20;4.68;;;2.20;;
63965;SDS011;50151;52.030;5.350;2022-12-07T06:55:48;4.38;;;2.20;;
63965;SDS011;50151;52.030;5.350;2022-12-07T06:58:14;5.35;;;2.65;;
63965;SDS011;50151;52.030;5.350;2022-12-07T07:00:41;3.83;;;2.13;;
63965;SDS011;50151;52.030;5.350;2022-12-07T07:03:09;4.10;;;2.10;;
63965;SDS011;50151;52.030;5.350;2022-12-07T07:05:35;4.85;;;2.10;;
63965;SDS011;50151;52.030;5.350;2022-12-07T07:08:02;3.33;;;2.03;;
63965;SDS011;50151;52.030;5.350;2022-12-07T07:13:14;3.38;;;2.00;;
63965;SDS011;50151;52.030;5.350;2022-12-07T07:15:40;3.45;;;1.90;;
63965;SDS011;50151;52.030;5.350;2022-12-07T07:18:07;4.72;;;3.08;;
63965;SDS011;50151;52.030;5.350;2022-12-07T07:20:34;4.15;;;2.00;;
63965;SDS011;50151;52.030;5.350;2022-12-07T07:23:01;4.72;;;1.88;;
63965;SDS011;50151;52.030;5.350;2022-12-07T07:25:28;4.28;;;1.77;;
63965;SDS011;50151;52.030;5.350;2022-12-07T07:27:55;3.20;;;1.83;;
63965;SDS011;50151;52.030;5.350;2022-12-07T07:30:21;7.95;;;1.73;;
63965;SDS011;50151;52.030;5.350;2022-12-07T07:32:48;7.68;;;1.90;;
63965;SDS011;50151;52.030;5.350;2022-12-07T07:35:15;2.40;;;1.65;;
63965;SDS011;50151;52.030;5.350;2022-12-07T07:37:42;4.82;;;2.00;;
63965;SDS011;50151;52.030;5.350;2022-12-07T07:40:09;4.78;;;1.85;;
63965;SDS011;50151;52.030;5.350;2022-12-07T07:42:36;5.82;;;1.90;;
63965;SDS011;50151;52.030;5.350;2022-12-07T07:45:02;5.68;;;1.98;;
63965;SDS011;50151;52.030;5.350;2022-12-07T07:47:30;4.90;;;1.95;;
63965;SDS011;50151;52.030;5.350;2022-12-07T07:49:57;6.78;;;2.13;;
63965;SDS011;50151;52.030;5.350;2022-12-07T07:52:24;2.50;;;1.60;;
63965;SDS011;50151;52.030;5.350;2022-12-07T07:54:51;3.78;;;2.08;;
63965;SDS011;50151;52.030;5.350;2022-12-07T07:57:18;5.03;;;1.90;;
63965;SDS011;50151;52.030;5.350;2022-12-07T07:59:44;10.93;;;2.22;;
63965;SDS011;50151;52.030;5.350;2022-12-07T08:02:18;5.28;;;1.77;;
63965;SDS011;50151;52.030;5.350;2022-12-07T08:07:13;6.15;;;2.05;;
63965;SDS011;50151;52.030;5.350;2022-12-07T08:09:40;9.13;;;2.10;;
63965;SDS011;50151;52.030;5.350;2022-12-07T08:12:07;5.93;;;2.42;;
63965;SDS011;50151;52.030;5.350;2022-12-07T08:14:34;4.28;;;2.28;;
63965;SDS011;50151;52.030;5.350;2022-12-07T08:17:00;15.75;;;2.33;;
63965;SDS011;50151;52.030;5.350;2022-12-07T08:19:27;8.88;;;2.35;;
63965;SDS011;50151;52.030;5.350;2022-12-07T08:21:54;5.85;;;2.13;;
63965;SDS011;50151;52.030;5.350;2022-12-07T08:24:22;8.88;;;2.25;;
63965;SDS011;50151;52.030;5.350;2022-12-07T08:26:49;7.50;;;2.30;;
63965;SDS011;50151;52.030;5.350;2022-12-07T08:29:16;7.75;;;2.15;;
63965;SDS011;50151;52.030;5.350;2022-12-07T08:31:43;7.57;;;1.95;;
63965;SDS011;50151;52.030;5.350;2022-12-07T08:34:10;5.75;;;2.08;;
63965;SDS011;50151;52.030;5.350;2022-12-07T08:36:37;12.10;;;2.13;;
63965;SDS011;50151;52.030;5.350;2022-12-07T08:39:04;8.85;;;2.40;;
63965;SDS011;50151;52.030;5.350;2022-12-07T08:41:51;5.68;;;1.95;;
63965;SDS011;50151;52.030;5.350;2022-12-07T08:44:18;6.72;;;2.88;;
63965;SDS011;50151;52.030;5.350;2022-12-07T08:46:53;9.88;;;2.90;;
63965;SDS011;50151;52.030;5.350;2022-12-07T08:49:26;9.80;;;2.90;;
63965;SDS011;50151;52.030;5.350;2022-12-07T08:51:57;7.00;;;2.85;;
63965;SDS011;50151;52.030;5.350;2022-12-07T08:54:24;7.72;;;2.88;;
63965;SDS011;50151;52.030;5.350;2022-12-07T08:56:51;9.93;;;2.80;;
63965;SDS011;50151;52.030;5.350;2022-12-07T08:59:25;9.13;;;2.80;;
63965;SDS011;50151;52.030;5.350;2022-12-07T09:01:53;7.38;;;2.72;;
63965;SDS011;50151;52.030;5.350;2022-12-07T09:04:20;8.07;;;2.50;;
63965;SDS011;50151;52.030;5.350;2022-12-07T09:06:47;9.20;;;2.90;;
63965;SDS011;50151;52.030;5.350;2022-12-07T09:09:14;8.98;;;2.80;;
63965;SDS011;50151;52.030;5.350;2022-12-07T09:11:41;5.07;;;2.40;;
63965;SDS011;50151;52.030;5.350;2022-12-07T09:14:08;7.32;;;2.70;;
63965;SDS011;50151;52.030;5.350;2022-12-07T09:16:34;6.57;;;2.45;;
63965;SDS011;50151;52.030;5.350;2022-12-07T09:19:01;5.18;;;2.55;;
63965;SDS011;50151;52.030;5.350;2022-12-07T09:21:28;9.50;;;2.67;;
63965;SDS011;50151;52.030;5.350;2022-12-07T09:23:55;10.10;;;2.67;;
63965;SDS011;50151;52.030;5.350;2022-12-07T09:26:21;9.88;;;2.40;;
63965;SDS011;50151;52.030;5.350;2022-12-07T09:28:48;7.13;;;2.15;;
63965;SDS011;50151;52.030;5.350;2022-12-07T09:31:15;8.38;;;1.88;;
63965;SDS011;50151;52.030;5.350;2022-12-07T09:33:57;8.45;;;1.92;;
63965;SDS011;50151;52.030;5.350;2022-12-07T09:36:26;8.88;;;2.53;;
63965;SDS011;50151;52.030;5.350;2022-12-07T09:38:53;6.72;;;2.28;;
63965;SDS011;50151;52.030;5.350;2022-12-07T09:41:21;6.95;;;2.15;;
63965;SDS011;50151;52.030;5.350;2022-12-07T09:43:48;10.88;;;2.03;;
63965;SDS011;50151;52.030;5.350;2022-12-07T09:46:16;11.38;;;2.13;;
63965;SDS011;50151;52.030;5.350;2022-12-07T09:48:46;6.72;;;2.05;;
63965;SDS011;50151;52.030;5.350;2022-12-07T09:51:18;11.68;;;1.90;;
63965;SDS011;50151;52.030;5.350;2022-12-07T09:53:51;5.20;;;1.92;;
63965;SDS011;50151;52.030;5.350;2022-12-07T09:56:19;4.60;;;1.77;;
63965;SDS011;50151;52.030;5.350;2022-12-07T09:58:47;12.52;;;1.85;;
63965;SDS011;50151;52.030;5.350;2022-12-07T10:01:16;4.50;;;1.65;;
63965;SDS011;50151;52.030;5.350;2022-12-07T10:03:48;7.20;;;2.17;;
63965;SDS011;50151;52.030;5.350;2022-12-07T10:08:46;4.85;;;1.85;;
63965;SDS011;50151;52.030;5.350;2022-12-07T10:11:13;9.98;;;1.90;;
63965;SDS011;50151;52.030;5.350;2022-12-07T10:13:43;7.05;;;2.03;;
63965;SDS011;50151;52.030;5.350;2022-12-07T10:18:54;8.93;;;1.40;;
63965;SDS011;50151;52.030;5.350;2022-12-07T10:21:22;5.10;;;2.00;;
63965;SDS011;50151;52.030;5.350;2022-12-07T10:24:14;3.67;;;1.52;;
63965;SDS011;50151;52.030;5.350;2022-12-07T10:32:03;7.57;;;1.40;;
63965;SDS011;50151;52.030;5.350;2022-12-07T10:35:15;12.07;;;3.80;;
63965;SDS011;50151;52.030;5.350;2022-12-07T10:37:48;4.38;;;1.85;;
63965;SDS011;50151;52.030;5.350;2022-12-07T10:51:51;6.32;;;1.45;;
63965;SDS011;50151;52.030;5.350;2022-12-07T10:54:43;5.10;;;1.05;;
63965;SDS011;50151;52.030;5.350;2022-12-07T10:57:39;8.68;;;1.55;;
63965;SDS011;50151;52.030;5.350;2022-12-07T11:00:24;5.25;;;1.25;;
63965;SDS011;50151;52.030;5.350;2022-12-07T11:11:14;7.07;;;1.42;;
63965;SDS011;50151;52.030;5.350;2022-12-07T11:13:55;4.80;;;1.60;;
63965;SDS011;50151;52.030;5.350;2022-12-07T11:22:26;7.45;;;1.30;;
63965;SDS011;50151;52.030;5.350;2022-12-07T11:30:42;5.18;;;1.25;;
63965;SDS011;50151;52.030;5.350;2022-12-07T11:39:13;6.03;;;1.50;;
63965;SDS011;50151;52.030;5.350;2022-12-07T11:41:45;5.55;;;1.10;;
63965;SDS011;50151;52.030;5.350;2022-12-07T11:44:25;9.82;;;1.42;;
63965;SDS011;50151;52.030;5.350;2022-12-07T11:47:14;4.03;;;0.93;;
63965;SDS011;50151;52.030;5.350;2022-12-07T11:52:18;5.55;;;1.23;;
63965;SDS011;50151;52.030;5.350;2022-12-07T11:54:51;6.75;;;1.13;;
63965;SDS011;50151;52.030;5.350;2022-12-07T11:57:32;5.95;;;1.00;;
63965;SDS011;50151;52.030;5.350;2022-12-07T12:00:05;5.28;;;1.10;;
63965;SDS011;50151;52.030;5.350;2022-12-07T12:02:41;6.00;;;0.88;;
63965;SDS011;50151;52.030;5.350;2022-12-07T12:05:21;4.88;;;0.93;;
63965;SDS011;50151;52.030;5.350;2022-12-07T12:07:55;5.18;;;1.42;;
63965;SDS011;50151;52.030;5.350;2022-12-07T12:11:00;6.90;;;1.30;;
63965;SDS011;50151;52.030;5.350;2022-12-07T12:16:51;2.63;;;0.80;;
63965;SDS011;50151;52.030;5.350;2022-12-07T12:19:57;7.47;;;0.90;;
63965;SDS011;50151;52.030;5.350;2022-12-07T12:22:42;6.55;;;0.70;;
63965;SDS011;50151;52.030;5.350;2022-12-07T12:27:49;2.83;;;0.90;;
63965;SDS011;50151;52.030;5.350;2022-12-07T12:30:51;5.05;;;0.98;;
63965;SDS011;50151;52.030;5.350;2022-12-07T12:35:43;0.95;;;0.52;;
63965;SDS011;50151;52.030;5.350;2022-12-07T12:40:59;2.42;;;0.60;;
63965;SDS011;50151;52.030;5.350;2022-12-07T12:43:39;4.47;;;0.90;;
63965;SDS011;50151;52.030;5.350;2022-12-07T12:54:22;4.13;;;1.08;;
63965;SDS011;50151;52.030;5.350;2022-12-07T12:59:36;4.63;;;1.23;;
63965;SDS011;50151;52.030;5.350;2022-12-07T13:15:37;2.92;;;1.10;;
63965;SDS011;50151;52.030;5.350;2022-12-07T13:20:57;9.82;;;1.00;;
63965;SDS011;50151;52.030;5.350;2022-12-07T13:23:31;8.20;;;1.37;;
63965;SDS011;50151;52.030;5.350;2022-12-07T13:28:47;6.15;;;1.17;;
63965;SDS011;50151;52.030;5.350;2022-12-07T13:31:40;9.10;;;1.55;;
63965;SDS011;50151;52.030;5.350;2022-12-07T13:39:49;4.20;;;0.90;;
63965;SDS011;50151;52.030;5.350;2022-12-07T13:42:27;5.45;;;1.30;;
63965;SDS011;50151;52.030;5.350;2022-12-07T13:44:56;2.40;;;0.80;;
63965;SDS011;50151;52.030;5.350;2022-12-07T13:47:30;6.95;;;1.20;;
63965;SDS011;50151;52.030;5.350;2022-12-07T13:49:58;3.47;;;1.00;;
63965;SDS011;50151;52.030;5.350;2022-12-07T13:52:28;9.80;;;1.80;;
63965;SDS011;50151;52.030;5.350;2022-12-07T13:57:33;7.93;;;1.27;;
63965;SDS011;50151;52.030;5.350;2022-12-07T14:00:05;4.03;;;1.38;;
63965;SDS011;50151;52.030;5.350;2022-12-07T14:03:42;6.20;;;1.40;;
63965;SDS011;50151;52.030;5.350;2022-12-07T14:05:38;7.13;;;1.70;;
63965;SDS011;50151;52.030;5.350;2022-12-07T14:10:40;8.95;;;1.55;;
63965;SDS011;50151;52.030;5.350;2022-12-07T14:15:57;3.97;;;1.35;;
63965;SDS011;50151;52.030;5.350;2022-12-07T14:18:46;3.55;;;1.20;;
63965;SDS011;50151;52.030;5.350;2022-12-07T14:23:39;3.70;;;1.35;;
63965;SDS011;50151;52.030;5.350;2022-12-07T14:26:07;5.85;;;0.95;;
63965;SDS011;50151;52.030;5.350;2022-12-07T14:29:18;5.95;;;1.00;;
63965;SDS011;50151;52.030;5.350;2022-12-07T14:31:45;1.98;;;0.55;;
63965;SDS011;50151;52.030;5.350;2022-12-07T14:34:12;3.65;;;0.70;;
63965;SDS011;50151;52.030;5.350;2022-12-07T14:36:39;1.35;;;0.50;;
63965;SDS011;50151;52.030;5.350;2022-12-07T14:39:06;4.05;;;0.88;;
63965;SDS011;50151;52.030;5.350;2022-12-07T14:41:38;3.22;;;0.65;;
63965;SDS011;50151;52.030;5.350;2022-12-07T14:44:22;4.63;;;0.60;;
63965;SDS011;50151;52.030;5.350;2022-12-07T14:46:57;4.15;;;0.68;;
63965;SDS011;50151;52.030;5.350;2022-12-07T14:49:44;3.63;;;0.52;;
63965;SDS011;50151;52.030;5.350;2022-12-07T14:52:24;2.70;;;0.60;;
63965;SDS011;50151;52.030;5.350;2022-12-07T14:55:26;2.47;;;0.47;;
63965;SDS011;50151;52.030;5.350;2022-12-07T14:57:54;2.95;;;0.70;;
63965;SDS011;50151;52.030;5.350;2022-12-07T15:00:22;3.40;;;0.73;;
63965;SDS011;50151;52.030;5.350;2022-12-07T15:02:50;3.05;;;0.80;;
63965;SDS011;50151;52.030;5.350;2022-12-07T15:05:17;2.97;;;0.82;;
63965;SDS011;50151;52.030;5.350;2022-12-07T15:07:45;5.45;;;0.90;;
63965;SDS011;50151;52.030;5.350;2022-12-07T15:10:18;3.10;;;0.80;;
63965;SDS011;50151;52.030;5.350;2022-12-07T15:12:49;4.18;;;0.90;;
63965;SDS011;50151;52.030;5.350;2022-12-07T15:15:17;2.30;;;0.60;;
63965;SDS011;50151;52.030;5.350;2022-12-07T15:17:43;3.20;;;1.00;;
63965;SDS011;50151;52.030;5.350;2022-12-07T15:20:14;8.45;;;0.85;;
63965;SDS011;50151;52.030;5.350;2022-12-07T15:22:42;1.15;;;0.60;;
63965;SDS011;50151;52.030;5.350;2022-12-07T15:25:12;2.95;;;0.80;;
63965;SDS011;50151;52.030;5.350;2022-12-07T15:27:40;2.90;;;1.20;;
63965;SDS011;50151;52.030;5.350;2022-12-07T15:30:07;2.85;;;0.80;;
63965;SDS011;50151;52.030;5.350;2022-12-07T15:32:34;2.85;;;0.90;;
63965;SDS011;50151;52.030;5.350;2022-12-07T15:35:01;2.65;;;0.77;;
63965;SDS011;50151;52.030;5.350;2022-12-07T15:37:28;0.88;;;0.50;;
63965;SDS011;50151;52.030;5.350;2022-12-07T15:39:55;4.00;;;0.90;;
63965;SDS011;50151;52.030;5.350;2022-12-07T15:42:21;4.85;;;0.82;;
63965;SDS011;50151;52.030;5.350;2022-12-07T15:44:48;2.33;;;0.93;;
63965;SDS011;50151;52.030;5.350;2022-12-07T15:47:35;2.70;;;0.98;;
63965;SDS011;50151;52.030;5.350;2022-12-07T15:50:29;2.17;;;0.50;;
63965;SDS011;50151;52.030;5.350;2022-12-07T15:52:55;3.72;;;0.95;;
63965;SDS011;50151;52.030;5.350;2022-12-07T15:55:22;2.15;;;0.60;;
63965;SDS011;50151;52.030;5.350;2022-12-07T15:57:49;3.00;;;1.10;;
63965;SDS011;50151;52.030;5.350;2022-12-07T16:00:16;5.38;;;1.20;;
63965;SDS011;50151;52.030;5.350;2022-12-07T16:02:43;3.95;;;1.15;;
63965;SDS011;50151;52.030;5.350;2022-12-07T16:05:12;3.80;;;1.23;;
63965;SDS011;50151;52.030;5.350;2022-12-07T16:07:39;3.28;;;1.13;;
63965;SDS011;50151;52.030;5.350;2022-12-07T16:10:09;2.63;;;0.90;;
63965;SDS011;50151;52.030;5.350;2022-12-07T16:12:36;2.58;;;0.80;;
63965;SDS011;50151;52.030;5.350;2022-12-07T16:15:03;6.32;;;1.23;;
63965;SDS011;50151;52.030;5.350;2022-12-07T16:17:31;5.55;;;1.48;;
63965;SDS011;50151;52.030;5.350;2022-12-07T16:19:57;4.75;;;2.10;;
63965;SDS011;50151;52.030;5.350;2022-12-07T16:22:24;5.75;;;1.45;;
63965;SDS011;50151;52.030;5.350;2022-12-07T16:24:51;4.00;;;2.25;;
63965;SDS011;50151;52.030;5.350;2022-12-07T16:27:17;1.77;;;1.17;;
63965;SDS011;50151;52.030;5.350;2022-12-07T16:29:44;3.88;;;1.40;;
63965;SDS011;50151;52.030;5.350;2022-12-07T16:32:11;4.82;;;1.40;;
63965;SDS011;50151;52.030;5.350;2022-12-07T16:34:39;3.75;;;1.33;;
63965;SDS011;50151;52.030;5.350;2022-12-07T16:37:05;4.15;;;1.30;;
63965;SDS011;50151;52.030;5.350;2022-12-07T16:39:32;2.35;;;0.90;;
63965;SDS011;50151;52.030;5.350;2022-12-07T16:42:00;3.65;;;1.27;;
63965;SDS011;50151;52.030;5.350;2022-12-07T16:44:27;5.30;;;1.30;;
63965;SDS011;50151;52.030;5.350;2022-12-07T16:46:54;5.50;;;1.40;;
63965;SDS011;50151;52.030;5.350;2022-12-07T16:49:21;6.43;;;1.58;;
63965;SDS011;50151;52.030;5.350;2022-12-07T16:51:50;5.15;;;1.33;;
63965;SDS011;50151;52.030;5.350;2022-12-07T16:54:37;2.30;;;1.15;;
63965;SDS011;50151;52.030;5.350;2022-12-07T16:57:03;3.53;;;1.50;;
63965;SDS011;50151;52.030;5.350;2022-12-07T16:59:30;6.50;;;1.60;;
63965;SDS011;50151;52.030;5.350;2022-12-07T17:01:57;3.25;;;1.60;;
63965;SDS011;50151;52.030;5.350;2022-12-07T17:04:24;3.80;;;1.88;;
63965;SDS011;50151;52.030;5.350;2022-12-07T17:06:50;5.45;;;1.70;;
63965;SDS011;50151;52.030;5.350;2022-12-07T17:09:17;5.65;;;1.85;;
63965;SDS011;50151;52.030;5.350;2022-12-07T17:11:46;5.25;;;1.48;;
63965;SDS011;50151;52.030;5.350;2022-12-07T17:14:14;3.35;;;1.67;;
63965;SDS011;50151;52.030;5.350;2022-12-07T17:16:59;5.55;;;1.65;;
63965;SDS011;50151;52.030;5.350;2022-12-07T17:19:26;3.53;;;1.67;;
63965;SDS011;50151;52.030;5.350;2022-12-07T17:21:52;4.60;;;1.60;;
63965;SDS011;50151;52.030;5.350;2022-12-07T17:24:19;4.78;;;1.33;;
63965;SDS011;50151;52.030;5.350;2022-12-07T17:26:46;6.30;;;1.67;;
63965;SDS011;50151;52.030;5.350;2022-12-07T17:29:14;5.68;;;1.90;;
63965;SDS011;50151;52.030;5.350;2022-12-07T17:31:43;3.40;;;1.88;;